Dease Lake, Canada
Current Conditions -  °F | °C
As of 9:29 AM on Thursday 23 Oct 2014 (Local Time) from CYDL Reporting Station
Light Snow Light Snow  
Wind Chill: 28°   Ceiling: 1100
Heat Index: 28°   Visibility: 9mi
Dew Point: 28°   Wind: 3mph
Humidity: 100%   Direction: 60°ENE
Pressure: 29.53"   Gusts: NA
Location:  58.44°N, 129.99°W
Report Text: CYDL 231629Z AUTO 06003KT 9SM -SN OVC011 M02/M02 A2953 RMK SLP022
Loading
Personal Weather Stations






























Interactive Weather Map
Tropical Storm Tracking
New forecast layout! Learn more

10-Day Weather Forecast

Advertisements
Track Severe Weather on mobile